createdAt,value
2023-03-23T16:02:20.243Z,26.15
2023-03-23T16:07:19.544Z,30.23
2023-03-23T16:12:19.156Z,37.00
2023-03-23T16:17:21.691Z,38.10
2023-03-23T16:22:19.944Z,36.55
2023-03-23T16:27:21.536Z,48.65
2023-03-23T16:32:19.875Z,44.53
2023-03-23T16:37:19.056Z,35.55
2023-03-23T16:42:19.819Z,86.28
2023-03-23T16:47:23.317Z,134.23
2023-03-23T16:52:21.739Z,63.65
2023-03-23T16:57:20.544Z,36.22
2023-03-23T17:02:20.089Z,22.75
2023-03-23T17:07:18.251Z,28.73
2023-03-23T17:12:16.550Z,48.63
2023-03-23T17:17:14.983Z,21.30
2023-03-23T17:22:14.557Z,18.92
2023-03-23T17:27:12.746Z,29.10
2023-03-23T17:32:11.033Z,27.63
2023-03-23T17:37:09.400Z,68.50
2023-03-23T17:42:08.978Z,65.93
2023-03-23T17:47:07.320Z,35.00
2023-03-23T17:52:05.758Z,23.80
2023-03-23T17:57:04.290Z,23.25
2023-03-23T18:02:03.862Z,21.45
2023-03-23T18:07:02.420Z,23.15
2023-03-23T18:12:01.016Z,25.63
2023-03-23T18:16:59.171Z,26.63
2023-03-23T18:21:58.661Z,46.28
2023-03-23T18:26:57.120Z,25.75
2023-03-23T18:31:55.388Z,23.88
2023-03-23T18:36:53.680Z,23.88
2023-03-23T18:41:53.217Z,22.98
2023-03-23T18:46:51.821Z,21.80
2023-03-23T18:51:49.986Z,22.77
2023-03-23T18:56:48.172Z,19.58
2023-03-23T19:01:49.728Z,20.45
2023-03-23T19:06:47.936Z,22.60
2023-03-23T19:11:46.326Z,22.13
2023-03-23T19:16:44.501Z,19.35
2023-03-23T19:21:47.048Z,17.80
2023-03-23T19:26:46.522Z,17.92
2023-03-23T19:31:46.280Z,18.52
2023-03-23T19:36:54.398Z,16.73
2023-03-23T19:41:57.583Z,15.55
2023-03-23T19:46:56.335Z,16.00
2023-03-23T19:52:08.888Z,18.60
2023-03-23T19:57:09.988Z,18.23
2023-03-23T20:02:08.531Z,16.95
2023-03-23T20:07:08.906Z,17.05
2023-03-23T20:12:07.100Z,15.27
2023-03-23T20:17:06.012Z,17.10
2023-03-23T20:22:04.721Z,18.50
2023-03-23T20:27:05.320Z,19.17
2023-03-23T20:32:03.550Z,18.75
2023-03-23T20:37:02.685Z,17.45
2023-03-23T20:42:06.629Z,16.85
2023-03-23T20:47:07.410Z,15.93
2023-03-23T20:52:06.657Z,18.02
2023-03-23T20:57:05.257Z,15.43
2023-03-23T21:02:04.762Z,16.38
2023-03-23T21:07:04.295Z,16.70
2023-03-23T21:12:04.467Z,16.50
2023-03-23T21:17:02.756Z,17.75
2023-03-23T21:22:01.247Z,16.95
2023-03-23T21:27:02.115Z,17.30
2023-03-23T21:32:08.157Z,16.17
2023-03-23T21:37:07.151Z,14.40
2023-03-23T21:42:06.999Z,14.20
2023-03-23T21:47:05.426Z,14.50
2023-03-23T21:52:03.917Z,13.27
2023-03-23T21:57:02.069Z,12.88
2023-03-23T22:02:04.070Z,15.05
2023-03-23T22:07:02.466Z,13.52
2023-03-23T22:12:00.752Z,14.02
2023-03-23T22:17:00.450Z,13.15
2023-03-23T22:22:00.160Z,14.88
2023-03-23T22:26:58.418Z,13.00
2023-03-23T22:31:56.685Z,12.50
2023-03-23T22:36:56.083Z,13.18
2023-03-23T22:41:55.737Z,12.93
2023-03-23T22:46:54.091Z,12.35
2023-03-23T22:51:52.307Z,12.40
2023-03-23T22:56:50.633Z,12.98
2023-03-23T23:01:50.272Z,12.95
2023-03-23T23:06:48.575Z,12.55
2023-03-23T23:11:46.817Z,13.05
2023-03-23T23:16:45.172Z,12.07
2023-03-23T23:21:44.828Z,12.60
2023-03-23T23:26:44.594Z,12.88
2023-03-23T23:31:43.920Z,12.10
2023-03-23T23:36:42.254Z,13.45
2023-03-23T23:41:43.295Z,12.80
2023-03-23T23:46:41.571Z,13.43
2023-03-23T23:51:41.267Z,11.93
2023-03-23T23:56:39.531Z,14.18
